createdAt,value
2022-12-17T00:01:06.270Z,98621.47
2022-12-17T00:03:51.741Z,98634.66
2022-12-17T00:06:37.488Z,98625.53
2022-12-17T00:09:22.734Z,98622.72
2022-12-17T00:12:08.957Z,98630.88
2022-12-17T00:14:54.988Z,98637.38
2022-12-17T00:17:41.519Z,98640.78
2022-12-17T00:20:27.018Z,98642.47
2022-12-17T00:23:19.003Z,98648.47
2022-12-17T00:26:08.179Z,98647.16
2022-12-17T00:28:53.484Z,98648.84
2022-12-17T00:31:39.842Z,98651.03
2022-12-17T00:34:25.208Z,98651.06
2022-12-17T00:37:12.141Z,98651.06
2022-12-17T00:39:59.404Z,98656.41
2022-12-17T00:42:46.390Z,98665.94
2022-12-17T00:45:31.579Z,98660.81
2022-12-17T00:48:16.862Z,98675.34
2022-12-17T00:51:02.114Z,98674.34
2022-12-17T00:53:47.059Z,98685.34
2022-12-17T00:56:32.904Z,98676.97
2022-12-17T00:59:17.856Z,98681.06
2022-12-17T01:02:02.875Z,98684.38
2022-12-17T01:04:48.271Z,98686.66
2022-12-17T01:07:33.649Z,98695.78
2022-12-17T01:10:18.904Z,98701.97
2022-12-17T01:13:04.012Z,98698.06
2022-12-17T01:15:49.350Z,98701.31
2022-12-17T01:18:38.321Z,98699.72
2022-12-17T01:21:23.572Z,98708.38
2022-12-17T01:24:08.925Z,98702.78
2022-12-17T01:26:55.198Z,98710.56
2022-12-17T01:29:41.555Z,98706.09
2022-12-17T01:32:27.039Z,98712.09
2022-12-17T01:35:12.213Z,98722.59
2022-12-17T01:37:57.481Z,98720.38
2022-12-17T01:40:42.715Z,98716.78
2022-12-17T01:43:29.875Z,98716.03
2022-12-17T01:46:15.481Z,98716.38
2022-12-17T01:49:02.351Z,98729.09
2022-12-17T01:51:47.617Z,98725.94
2022-12-17T01:54:33.062Z,98723.44
2022-12-17T01:57:18.273Z,98731.75
2022-12-17T02:00:11.817Z,98735.41
2022-12-17T02:03:00.841Z,98751.16
2022-12-17T02:06:10.059Z,98741.63
2022-12-17T02:09:01.462Z,98746.00
2022-12-17T02:11:52.692Z,98751.16
2022-12-17T02:14:51.495Z,98755.75
2022-12-17T02:17:38.165Z,98756.94
2022-12-17T02:20:42.537Z,98765.72
2022-12-17T02:23:30.947Z,98763.50
2022-12-17T02:26:19.319Z,98765.38
2022-12-17T02:29:05.111Z,98770.34
2022-12-17T02:31:50.448Z,98769.53
2022-12-17T02:34:35.617Z,98771.34
2022-12-17T02:37:20.944Z,98763.28
2022-12-17T02:40:06.134Z,98771.13
2022-12-17T02:42:52.842Z,98777.59
2022-12-17T02:45:38.233Z,98776.56
2022-12-17T02:48:24.643Z,98786.09
2022-12-17T02:51:14.497Z,98784.25
2022-12-17T02:54:03.310Z,98782.63
2022-12-17T02:56:48.855Z,98790.03
2022-12-17T02:59:33.949Z,98794.16
2022-12-17T03:02:26.612Z,98795.22
2022-12-17T03:05:42.947Z,98803.28
2022-12-17T03:08:17.164Z,98801.34
2022-12-17T03:11:02.358Z,98806.06
2022-12-17T03:13:47.670Z,98815.91
2022-12-17T03:16:37.521Z,98810.50
2022-12-17T03:19:23.221Z,98813.53
2022-12-17T03:22:08.611Z,98816.69
2022-12-17T03:24:53.750Z,98814.41
2022-12-17T03:27:38.752Z,98824.34
2022-12-17T03:30:24.226Z,98820.91
2022-12-17T03:33:09.302Z,98819.53
2022-12-17T03:35:54.611Z,98828.13
2022-12-17T03:38:39.809Z,98838.25
2022-12-17T03:41:25.255Z,98830.72
2022-12-17T03:44:10.697Z,98832.09
2022-12-17T03:46:55.855Z,98834.25
2022-12-17T03:49:41.201Z,98830.66
2022-12-17T03:52:26.601Z,98841.28
2022-12-17T03:55:12.043Z,98834.28
2022-12-17T03:57:57.521Z,98836.81
2022-12-17T04:00:42.905Z,98835.19
2022-12-17T04:03:28.359Z,98832.97
2022-12-17T04:06:13.638Z,98825.63
2022-12-17T04:08:59.022Z,98835.84
2022-12-17T04:11:44.451Z,98838.94
2022-12-17T04:14:29.907Z,98851.22
2022-12-17T04:17:15.340Z,98847.16
2022-12-17T04:20:00.458Z,98848.63
2022-12-17T04:22:45.727Z,98861.59
2022-12-17T04:25:30.879Z,98857.09
2022-12-17T04:28:16.302Z,98866.13
2022-12-17T04:31:01.354Z,98865.84
2022-12-17T04:33:46.643Z,98884.63
2022-12-17T04:36:31.928Z,98881.97
2022-12-17T04:39:17.128Z,98880.94
2022-12-17T04:42:02.458Z,98883.81
2022-12-17T04:44:47.637Z,98878.22
2022-12-17T04:47:32.977Z,98875.69
2022-12-17T04:50:18.313Z,98881.97
2022-12-17T04:53:03.557Z,98887.47
2022-12-17T04:55:48.899Z,98886.19
2022-12-17T04:58:34.073Z,98890.91
2022-12-17T05:01:19.551Z,98902.75
2022-12-17T05:04:04.788Z,98901.16
2022-12-17T05:06:50.025Z,98900.44
2022-12-17T05:09:35.296Z,98897.56
2022-12-17T05:12:20.499Z,98905.56
2022-12-17T05:15:05.889Z,98915.28
2022-12-17T05:17:50.971Z,98906.03
2022-12-17T05:20:35.941Z,98917.47
2022-12-17T05:23:24.895Z,98919.41
2022-12-17T05:26:14.705Z,98919.28
2022-12-17T05:28:59.903Z,98919.47
2022-12-17T05:31:45.266Z,98915.53
2022-12-17T05:34:30.617Z,98918.50
2022-12-17T05:37:15.522Z,98919.09
2022-12-17T05:40:00.798Z,98916.09
2022-12-17T05:42:46.085Z,98923.72
2022-12-17T05:45:31.465Z,98937.66
2022-12-17T05:48:16.764Z,98932.19
2022-12-17T05:51:01.890Z,98940.56
2022-12-17T05:53:47.052Z,98934.75
2022-12-17T05:56:35.415Z,98943.72
2022-12-17T05:59:20.874Z,98944.94
2022-12-17T06:02:06.010Z,98952.09
2022-12-17T06:04:51.302Z,98953.94
2022-12-17T06:07:36.535Z,98959.41
2022-12-17T06:10:21.815Z,98960.88
2022-12-17T06:13:13.703Z,98974.94
2022-12-17T06:15:58.945Z,98971.94
2022-12-17T06:18:44.146Z,98977.53
2022-12-17T06:21:29.493Z,98977.38
2022-12-17T06:24:14.512Z,98981.84
2022-12-17T06:26:59.657Z,98978.78
2022-12-17T06:29:44.981Z,98965.66
2022-12-17T06:32:30.349Z,98978.38
2022-12-17T06:35:15.624Z,98983.28
2022-12-17T06:38:01.892Z,98987.34
2022-12-17T06:40:47.442Z,98984.66
2022-12-17T06:43:32.697Z,98991.69
2022-12-17T06:46:17.887Z,98996.59
2022-12-17T06:49:03.329Z,98998.53
2022-12-17T06:51:48.530Z,98999.56
2022-12-17T06:54:33.818Z,99001.94
2022-12-17T06:57:19.092Z,98998.56
2022-12-17T07:00:04.308Z,99004.38
2022-12-17T07:02:49.639Z,99012.78
2022-12-17T07:05:34.891Z,99012.25
2022-12-17T07:08:20.169Z,99019.97
2022-12-17T07:11:05.262Z,99019.06
2022-12-17T07:13:50.498Z,99010.59
2022-12-17T07:16:35.771Z,99017.53
2022-12-17T07:19:26.793Z,99033.50
2022-12-17T07:22:12.298Z,99035.13
2022-12-17T07:24:57.604Z,99039.16
2022-12-17T07:27:45.196Z,99040.13
2022-12-17T07:30:30.581Z,99043.50
2022-12-17T07:33:19.398Z,99045.97
2022-12-17T07:36:04.581Z,99051.72
2022-12-17T07:38:50.423Z,99048.97
2022-12-17T07:41:42.947Z,99049.03
2022-12-17T07:44:27.795Z,99063.47
2022-12-17T07:47:33.025Z,99065.13
2022-12-17T07:50:17.887Z,99068.75
2022-12-17T07:53:03.063Z,99081.94
2022-12-17T07:55:48.140Z,99079.63
2022-12-17T07:58:33.205Z,99086.53
2022-12-17T08:01:19.144Z,99094.97
2022-12-17T08:04:04.431Z,99092.78
2022-12-17T08:06:49.713Z,99094.50
2022-12-17T08:09:34.851Z,99101.75
2022-12-17T08:12:20.259Z,99105.03
2022-12-17T08:15:05.230Z,99116.00
2022-12-17T08:17:50.645Z,99113.44
2022-12-17T08:20:35.994Z,99114.66
2022-12-17T08:23:24.724Z,99116.75
2022-12-17T08:26:10.028Z,99119.66
2022-12-17T08:28:55.278Z,99128.63
2022-12-17T08:31:42.287Z,99125.00
2022-12-17T08:34:27.570Z,99128.25
2022-12-17T08:37:12.822Z,99128.69
2022-12-17T08:39:57.817Z,99130.06
2022-12-17T08:42:42.901Z,99135.50
2022-12-17T08:45:28.512Z,99136.94
2022-12-17T08:48:20.987Z,99142.91
2022-12-17T08:51:06.226Z,99137.91
2022-12-17T08:53:51.393Z,99149.19
2022-12-17T08:56:36.494Z,99149.44
2022-12-17T08:59:21.923Z,99155.59
2022-12-17T09:02:07.985Z,99167.63
2022-12-17T09:04:53.141Z,99166.91
2022-12-17T09:07:38.503Z,99175.63
2022-12-17T09:10:23.947Z,99176.53
2022-12-17T09:13:09.297Z,99177.50
2022-12-17T09:15:57.218Z,99174.06
2022-12-17T09:18:44.404Z,99178.84
2022-12-17T09:21:29.295Z,99181.50
2022-12-17T09:24:14.757Z,99183.34
2022-12-17T09:27:02.446Z,99183.63
2022-12-17T09:29:55.982Z,99180.75
2022-12-17T09:32:44.414Z,99182.25
2022-12-17T09:35:35.054Z,99182.94
2022-12-17T09:38:20.538Z,99186.75
2022-12-17T09:41:06.400Z,99195.25
2022-12-17T09:43:58.020Z,99199.78
2022-12-17T09:46:48.466Z,99195.16
2022-12-17T09:49:35.274Z,99199.78
2022-12-17T09:52:22.123Z,99190.22
2022-12-17T09:55:09.690Z,99199.53
2022-12-17T09:57:55.576Z,99197.50
2022-12-17T10:00:44.756Z,99185.78
2022-12-17T10:03:31.607Z,99184.75
2022-12-17T10:06:22.366Z,99180.56
2022-12-17T10:09:08.665Z,99183.56
2022-12-17T10:11:53.913Z,99177.75
2022-12-17T10:14:42.555Z,99172.13
2022-12-17T10:17:38.101Z,99178.81
2022-12-17T10:20:25.117Z,99184.94
2022-12-17T10:23:10.434Z,99190.41
2022-12-17T10:25:55.715Z,99195.53
2022-12-17T10:28:44.080Z,99190.00
2022-12-17T10:31:30.520Z,99195.06
2022-12-17T10:34:15.846Z,99191.50
2022-12-17T10:37:05.365Z,99188.28
2022-12-17T10:39:50.679Z,99183.78
2022-12-17T10:42:40.174Z,99185.16
2022-12-17T10:45:41.562Z,99192.16
2022-12-17T10:48:45.708Z,99189.53
2022-12-17T10:51:42.867Z,99187.47
2022-12-17T10:54:29.676Z,99184.91
2022-12-17T10:57:15.488Z,99187.19
2022-12-17T11:00:00.692Z,99189.47
2022-12-17T11:02:46.780Z,99188.13
2022-12-17T11:05:33.559Z,99194.03
2022-12-17T11:08:18.777Z,99197.50
2022-12-17T11:11:04.169Z,99196.41
2022-12-17T11:13:50.865Z,99194.41
2022-12-17T11:16:45.584Z,99197.72
2022-12-17T11:19:30.774Z,99192.09
2022-12-17T11:22:16.686Z,99196.84
2022-12-17T11:25:11.101Z,99199.91
2022-12-17T11:27:59.217Z,99201.31
2022-12-17T11:30:47.335Z,99209.50
2022-12-17T11:33:36.841Z,99213.75
2022-12-17T11:36:31.259Z,99205.06
2022-12-17T11:39:46.957Z,99207.56
2022-12-17T11:42:35.207Z,99207.59
2022-12-17T11:45:35.170Z,99201.09
2022-12-17T11:48:22.555Z,99200.88
2022-12-17T11:51:13.146Z,99213.59
2022-12-17T11:54:04.621Z,99210.03
2022-12-17T11:56:52.066Z,99211.44
2022-12-17T11:59:40.348Z,99217.25
2022-12-17T12:02:25.662Z,99209.16
2022-12-17T12:05:18.602Z,99221.16
2022-12-17T12:08:05.881Z,99216.31
2022-12-17T12:10:54.283Z,99216.47
2022-12-17T12:13:45.576Z,99215.47
2022-12-17T12:16:33.636Z,99203.63
2022-12-17T12:19:27.368Z,99201.19
2022-12-17T12:22:18.681Z,99206.56
2022-12-17T12:25:06.903Z,99204.72
2022-12-17T12:27:57.731Z,99201.06
2022-12-17T12:30:43.103Z,99201.34
2022-12-17T12:33:40.590Z,99202.66
2022-12-17T12:36:27.509Z,99201.19
2022-12-17T12:39:13.286Z,99205.59
2022-12-17T12:42:07.565Z,99204.94
2022-12-17T12:44:55.852Z,99203.09
2022-12-17T12:47:46.793Z,99201.22
2022-12-17T12:50:51.156Z,99195.00
2022-12-17T12:53:36.610Z,99191.69
2022-12-17T12:56:21.763Z,99193.47
2022-12-17T12:59:07.161Z,99188.63
2022-12-17T13:01:55.623Z,99197.66
2022-12-17T13:04:53.930Z,99201.81
2022-12-17T13:07:21.490Z,99205.41
2022-12-17T13:09:50.330Z,99202.78
2022-12-17T13:12:21.078Z,99207.75
2022-12-17T13:14:50.731Z,99206.91
2022-12-17T13:17:17.239Z,99198.06
2022-12-17T13:19:44.799Z,99194.00
2022-12-17T13:22:17.633Z,99196.69
2022-12-17T13:24:49.210Z,99203.22
2022-12-17T13:27:27.568Z,99196.06
2022-12-17T13:29:54.061Z,99202.38
2022-12-17T13:32:25.886Z,99201.03
2022-12-17T13:35:10.084Z,99197.47
2022-12-17T13:37:48.255Z,99206.53
2022-12-17T13:40:17.687Z,99193.34
2022-12-17T13:42:45.326Z,99199.09
2022-12-17T13:45:16.081Z,99200.59
2022-12-17T13:47:42.548Z,99202.34
2022-12-17T13:50:35.935Z,99202.28
2022-12-17T13:53:10.589Z,99199.53
2022-12-17T13:55:50.777Z,99201.72
2022-12-17T13:58:40.544Z,99194.94
2022-12-17T14:01:08.354Z,99198.41
2022-12-17T14:04:05.721Z,99211.69
2022-12-17T14:06:30.904Z,99212.06
2022-12-17T14:08:57.782Z,99205.97
2022-12-17T14:11:43.109Z,99212.91
2022-12-17T14:14:28.539Z,99224.16
2022-12-17T14:16:55.255Z,99231.06
2022-12-17T14:19:22.097Z,99231.38
2022-12-17T14:21:48.610Z,99229.03
2022-12-17T14:24:15.130Z,99226.72
2022-12-17T14:26:51.860Z,99227.81
2022-12-17T14:29:25.313Z,99228.31
2022-12-17T14:32:03.742Z,99227.78
2022-12-17T14:34:42.225Z,99232.06
2022-12-17T14:37:19.884Z,99227.66
2022-12-17T14:39:46.869Z,99228.91
2022-12-17T14:42:25.731Z,99227.91
2022-12-17T14:45:00.513Z,99228.91
2022-12-17T14:47:31.720Z,99238.47
2022-12-17T14:50:06.556Z,99236.47
2022-12-17T14:52:37.034Z,99229.66
2022-12-17T14:55:22.622Z,99233.72
2022-12-17T14:57:49.828Z,99229.19
2022-12-17T15:00:17.209Z,99228.53
2022-12-17T15:02:54.877Z,99227.28
2022-12-17T15:05:21.579Z,99224.84
2022-12-17T15:07:48.074Z,99228.44
2022-12-17T15:10:16.661Z,99222.63
2022-12-17T15:12:43.420Z,99226.81
2022-12-17T15:15:13.736Z,99234.88
2022-12-17T15:17:40.474Z,99236.78
2022-12-17T15:20:10.214Z,99248.81
2022-12-17T15:22:39.576Z,99251.91
2022-12-17T15:25:10.352Z,99255.63
2022-12-17T15:27:37.064Z,99254.63
2022-12-17T15:30:03.981Z,99250.72
2022-12-17T15:32:31.249Z,99256.41
2022-12-17T15:34:57.770Z,99257.72
2022-12-17T15:37:25.925Z,99255.22
2022-12-17T15:39:52.599Z,99258.22
2022-12-17T15:42:38.034Z,99263.44
2022-12-17T15:45:04.799Z,99263.63
2022-12-17T15:47:31.370Z,99261.34
2022-12-17T15:49:57.925Z,99267.16
2022-12-17T15:52:24.435Z,99262.47
2022-12-17T15:54:50.944Z,99262.38
2022-12-17T15:57:18.795Z,99268.28
2022-12-17T15:59:45.569Z,99263.72
2022-12-17T16:02:12.373Z,99271.66
2022-12-17T16:04:39.182Z,99274.28
2022-12-17T16:07:05.819Z,99280.06
2022-12-17T16:09:32.325Z,99282.00
2022-12-17T16:11:58.839Z,99288.22
2022-12-17T16:14:25.358Z,99303.00
2022-12-17T16:16:51.892Z,99302.69
2022-12-17T16:19:18.449Z,99301.19
2022-12-17T16:21:48.537Z,99303.50
2022-12-17T16:24:14.998Z,99290.59
2022-12-17T16:26:41.460Z,99294.00
2022-12-17T16:29:07.925Z,99295.00
2022-12-17T16:31:34.469Z,99303.69
2022-12-17T16:34:01.028Z,99300.19
2022-12-17T16:36:27.651Z,99302.13
2022-12-17T16:38:54.315Z,99291.81
2022-12-17T16:41:21.254Z,99296.06
2022-12-17T16:43:48.182Z,99294.00
2022-12-17T16:46:24.053Z,99295.66
2022-12-17T16:48:50.609Z,99298.03
2022-12-17T16:51:21.092Z,99296.38
2022-12-17T16:53:52.451Z,99295.78
2022-12-17T16:56:20.978Z,99293.84
2022-12-17T16:58:47.704Z,99299.72
2022-12-17T17:01:18.230Z,99298.91
2022-12-17T17:03:44.887Z,99299.84
2022-12-17T17:06:11.415Z,99301.56
2022-12-17T17:08:38.462Z,99295.66
2022-12-17T17:11:12.519Z,99301.84
2022-12-17T17:13:39.035Z,99303.50
2022-12-17T17:16:05.891Z,99296.66
2022-12-17T17:18:32.621Z,99296.66
2022-12-17T17:21:18.066Z,99306.84
2022-12-17T17:23:45.264Z,99300.63
2022-12-17T17:26:11.854Z,99312.81
2022-12-17T17:28:38.937Z,99311.63
2022-12-17T17:31:06.827Z,99314.16
2022-12-17T17:33:34.946Z,99324.19
2022-12-17T17:36:04.358Z,99320.03
2022-12-17T17:38:32.702Z,99317.09
2022-12-17T17:40:59.207Z,99324.47
2022-12-17T17:43:25.694Z,99327.97
2022-12-17T17:45:53.196Z,99328.94
2022-12-17T17:48:20.051Z,99325.53
2022-12-17T17:50:59.568Z,99340.34
2022-12-17T17:53:26.150Z,99335.41
2022-12-17T17:55:52.801Z,99336.09
2022-12-17T17:58:19.353Z,99339.78
2022-12-17T18:00:45.843Z,99351.09
2022-12-17T18:03:12.385Z,99339.88
2022-12-17T18:05:41.671Z,99344.94
2022-12-17T18:08:08.846Z,99344.06
2022-12-17T18:10:35.953Z,99339.88
2022-12-17T18:13:20.920Z,99337.44
2022-12-17T18:15:47.479Z,99330.53
2022-12-17T18:18:14.834Z,99336.94
2022-12-17T18:20:41.543Z,99348.84
2022-12-17T18:23:08.461Z,99350.59
2022-12-17T18:25:37.738Z,99354.00
2022-12-17T18:28:04.741Z,99340.94
2022-12-17T18:30:33.137Z,99341.78
2022-12-17T18:33:03.126Z,99330.78
2022-12-17T18:35:30.651Z,99333.44
2022-12-17T18:38:06.545Z,99333.28
2022-12-17T18:40:35.322Z,99331.47
2022-12-17T18:43:20.895Z,99333.97
2022-12-17T18:45:51.685Z,99342.94
2022-12-17T18:48:18.978Z,99350.34
2022-12-17T18:50:48.385Z,99344.38
2022-12-17T18:53:15.155Z,99349.53
2022-12-17T18:55:42.060Z,99353.16
2022-12-17T18:58:09.178Z,99361.59
2022-12-17T19:00:39.299Z,99363.41
2022-12-17T19:03:06.889Z,99364.53
2022-12-17T19:05:33.604Z,99364.78
2022-12-17T19:08:00.241Z,99366.50
2022-12-17T19:10:26.807Z,99374.19
2022-12-17T19:12:53.555Z,99371.41
2022-12-17T19:15:20.530Z,99372.75
2022-12-17T19:17:50.858Z,99375.16
2022-12-17T19:20:17.978Z,99372.72
2022-12-17T19:22:44.482Z,99371.06
2022-12-17T19:25:10.955Z,99380.53
2022-12-17T19:27:37.492Z,99383.16
2022-12-17T19:30:04.552Z,99386.63
2022-12-17T19:32:31.566Z,99392.13
2022-12-17T19:34:58.163Z,99396.59
2022-12-17T19:37:24.698Z,99402.16
2022-12-17T19:39:51.245Z,99410.31
2022-12-17T19:45:06.610Z,99410.44
2022-12-17T19:47:33.105Z,99421.72
2022-12-17T19:49:59.568Z,99419.94
2022-12-17T19:52:26.318Z,99418.50
2022-12-17T19:54:52.988Z,99423.31
2022-12-17T19:57:19.824Z,99427.31
2022-12-17T19:59:46.343Z,99417.97
2022-12-17T20:02:13.129Z,99425.47
2022-12-17T20:04:39.849Z,99416.91
2022-12-17T20:07:06.364Z,99411.84
2022-12-17T20:09:32.861Z,99410.25
2022-12-17T20:11:59.374Z,99410.22
2022-12-17T20:14:26.563Z,99423.03
2022-12-17T20:16:54.857Z,99420.19
2022-12-17T20:19:25.386Z,99419.81
2022-12-17T20:21:52.232Z,99409.41
2022-12-17T20:24:18.816Z,99417.25
2022-12-17T20:26:46.235Z,99415.72
2022-12-17T20:29:12.854Z,99416.13
2022-12-17T20:31:39.519Z,99407.56
2022-12-17T20:34:07.086Z,99413.97
2022-12-17T20:36:33.645Z,99412.28
2022-12-17T20:39:00.247Z,99410.63
2022-12-17T20:41:27.539Z,99403.19
2022-12-17T20:43:54.114Z,99405.75
2022-12-17T20:46:21.487Z,99403.91
2022-12-17T20:48:48.061Z,99398.69
2022-12-17T20:51:24.392Z,99396.84
2022-12-17T20:53:52.061Z,99399.50
2022-12-17T20:56:19.594Z,99402.22
2022-12-17T20:58:46.347Z,99399.78
2022-12-17T21:01:22.179Z,99398.16
2022-12-17T21:03:50.008Z,99404.03
2022-12-17T21:06:18.006Z,99402.34
2022-12-17T21:08:49.383Z,99410.34
2022-12-17T21:11:20.384Z,99406.47
2022-12-17T21:13:46.920Z,99412.59
2022-12-17T21:16:14.391Z,99401.75
2022-12-17T21:18:41.744Z,99395.66
2022-12-17T21:21:09.627Z,99402.72
2022-12-17T21:23:36.316Z,99409.06
2022-12-17T21:26:04.513Z,99413.09
2022-12-17T21:28:37.089Z,99412.50
2022-12-17T21:31:04.188Z,99410.78
2022-12-17T21:33:31.277Z,99410.78
2022-12-17T21:36:02.079Z,99409.28
2022-12-17T21:38:34.374Z,99407.38
2022-12-17T21:41:08.093Z,99409.44
2022-12-17T21:43:36.816Z,99413.31
2022-12-17T21:46:04.015Z,99411.50
2022-12-17T21:48:30.549Z,99424.44
2022-12-17T21:50:57.049Z,99421.19
2022-12-17T21:53:23.940Z,99430.59
2022-12-17T21:55:50.700Z,99420.56
2022-12-17T21:58:18.328Z,99431.94
2022-12-17T22:00:44.866Z,99428.34
2022-12-17T22:03:11.435Z,99419.00
2022-12-17T22:05:38.168Z,99424.09
2022-12-17T22:08:05.385Z,99436.84
2022-12-17T22:10:37.678Z,99441.22
2022-12-17T22:13:36.105Z,99444.56
2022-12-17T22:16:05.337Z,99443.50
2022-12-17T22:18:31.916Z,99443.63
2022-12-17T22:20:59.210Z,99436.00
2022-12-17T22:23:25.773Z,99432.44
2022-12-17T22:25:52.693Z,99430.44
2022-12-17T22:28:19.193Z,99419.28
2022-12-17T22:31:04.432Z,99426.00
2022-12-17T22:33:52.483Z,99425.88
2022-12-17T22:38:16.118Z,99430.41
2022-12-17T22:41:59.917Z,99436.47
2022-12-17T22:44:49.499Z,99440.72
2022-12-17T22:45:04.331Z,99444.13
2022-12-17T22:47:35.808Z,99433.75
2022-12-17T22:50:02.305Z,99432.88
2022-12-17T22:52:29.252Z,99438.16
2022-12-17T22:54:55.997Z,99436.19
2022-12-17T22:57:36.688Z,99439.53
2022-12-17T23:00:16.333Z,99429.94
2022-12-17T23:02:50.516Z,99423.19
2022-12-17T23:05:19.728Z,99438.09
2022-12-17T23:07:51.942Z,99431.44
2022-12-17T23:10:20.698Z,99436.69
2022-12-17T23:12:56.631Z,99436.81
2022-12-17T23:15:28.900Z,99433.47
2022-12-17T23:17:56.733Z,99421.38
2022-12-17T23:20:29.803Z,99429.00
2022-12-17T23:22:56.733Z,99437.47
2022-12-17T23:25:26.952Z,99443.38
2022-12-17T23:27:56.407Z,99447.59
2022-12-17T23:30:26.209Z,99437.19
2022-12-17T23:32:53.078Z,99444.88
2022-12-17T23:35:19.686Z,99445.81
2022-12-17T23:37:46.212Z,99439.03
2022-12-17T23:40:12.964Z,99443.34
2022-12-17T23:42:39.474Z,99440.00
2022-12-17T23:45:06.161Z,99443.53
2022-12-17T23:47:32.702Z,99439.13
2022-12-17T23:49:59.181Z,99448.50
2022-12-17T23:52:25.715Z,99440.41
2022-12-17T23:54:52.518Z,99442.03
2022-12-17T23:57:19.072Z,99439.59
2022-12-17T23:59:45.559Z,99445.81
